sensor_id;sensor_type;location;lat;lon;timestamp;pressure;altitude;pressure_sealevel;temperature;humidity
23643;BME280;11998;55.788;37.572;2023-02-26T00:00:22;96781.25;;;1.76;100.00
23643;BME280;11998;55.788;37.572;2023-02-26T00:01:29;96775.03;;;1.80;100.00
23643;BME280;11998;55.788;37.572;2023-02-26T00:02:30;96769.88;;;1.79;100.00
23643;BME280;11998;55.788;37.572;2023-02-26T00:03:30;96762.94;;;1.77;100.00
23643;BME280;11998;55.788;37.572;2023-02-26T00:04:31;96770.72;;;1.79;100.00
23643;BME280;11998;55.788;37.572;2023-02-26T00:05:32;96759.38;;;1.80;100.00
23643;BME280;11998;55.788;37.572;2023-02-26T00:06:35;96756.66;;;1.83;100.00
23643;BME280;11998;55.788;37.572;2023-02-26T00:07:37;96756.66;;;1.83;100.00
23643;BME280;11998;55.788;37.572;2023-02-26T00:08:37;96754.97;;;1.82;100.00
23643;BME280;11998;55.788;37.572;2023-02-26T00:09:38;96746.16;;;1.86;100.00
23643;BME280;11998;55.788;37.572;2023-02-26T00:10:39;96746.16;;;1.86;100.00
23643;BME280;11998;55.788;37.572;2023-02-26T00:11:39;96749.63;;;1.85;100.00
23643;BME280;11998;55.788;37.572;2023-02-26T00:12:40;96757.53;;;1.84;100.00
23643;BME280;11998;55.788;37.572;2023-02-26T00:13:43;96737.59;;;1.81;100.00
23643;BME280;11998;55.788;37.572;2023-02-26T00:14:45;96747.03;;;1.85;100.00
23643;BME280;11998;55.788;37.572;2023-02-26T00:15:46;96741.06;;;1.82;100.00
23643;BME280;11998;55.788;37.572;2023-02-26T00:18:04;96737.50;;;1.84;100.00
23643;BME280;11998;55.788;37.572;2023-02-26T00:19:07;96719.41;;;1.80;100.00
23643;BME280;11998;55.788;37.572;2023-02-26T00:20:11;96718.44;;;1.82;100.00
23643;BME280;11998;55.788;37.572;2023-02-26T00:21:19;96728.06;;;1.80;100.00
23643;BME280;11998;55.788;37.572;2023-02-26T00:22:20;96713.31;;;1.79;100.00
23643;BME280;11998;55.788;37.572;2023-02-26T00:23:21;96712.41;;;1.80;100.00
23643;BME280;11998;55.788;37.572;2023-02-26T00:24:23;96709.81;;;1.80;100.00
23643;BME280;11998;55.788;37.572;2023-02-26T00:25:24;96702.88;;;1.79;100.00
23643;BME280;11998;55.788;37.572;2023-02-26T00:26:25;96714.16;;;1.80;100.00
23643;BME280;11998;55.788;37.572;2023-02-26T00:27:26;96699.38;;;1.80;100.00
23643;BME280;11998;55.788;37.572;2023-02-26T00:28:27;96707.19;;;1.80;100.00
23643;BME280;11998;55.788;37.572;2023-02-26T00:29:28;96695.97;;;1.78;100.00
23643;BME280;11998;55.788;37.572;2023-02-26T00:30:28;96703.00;;;1.76;100.00
23643;BME280;11998;55.788;37.572;2023-02-26T00:31:29;96688.19;;;1.76;100.00
23643;BME280;11998;55.788;37.572;2023-02-26T00:32:30;96690.84;;;1.75;100.00
23643;BME280;11998;55.788;37.572;2023-02-26T00:33:31;96683.94;;;1.74;100.00
23643;BME280;11998;55.788;37.572;2023-02-26T00:34:32;96680.41;;;1.75;100.00
23643;BME280;11998;55.788;37.572;2023-02-26T00:35:33;96702.09;;;1.77;100.00
23643;BME280;11998;55.788;37.572;2023-02-26T00:38:09;96683.81;;;1.77;100.00
23643;BME280;11998;55.788;37.572;2023-02-26T00:41:39;96674.28;;;1.76;100.00
23643;BME280;11998;55.788;37.572;2023-02-26T00:42:40;96670.91;;;1.72;100.00
23643;BME280;11998;55.788;37.572;2023-02-26T00:43:41;96661.31;;;1.74;100.00
23643;BME280;11998;55.788;37.572;2023-02-26T00:44:42;96656.94;;;1.75;100.00
23643;BME280;11998;55.788;37.572;2023-02-26T00:45:47;96651.75;;;1.73;100.00
23643;BME280;11998;55.788;37.572;2023-02-26T00:46:57;96650.81;;;1.76;100.00
23643;BME280;11998;55.788;37.572;2023-02-26T00:49:15;96661.44;;;1.70;100.00
23643;BME280;11998;55.788;37.572;2023-02-26T00:50:20;96645.88;;;1.67;100.00
23643;BME280;11998;55.788;37.572;2023-02-26T00:52:42;96645.88;;;1.67;100.00
23643;BME280;11998;55.788;37.572;2023-02-26T00:53:53;96638.81;;;1.70;100.00
23643;BME280;11998;55.788;37.572;2023-02-26T00:54:58;96630.13;;;1.70;100.00
23643;BME280;11998;55.788;37.572;2023-02-26T00:55:58;96626.78;;;1.66;100.00
23643;BME280;11998;55.788;37.572;2023-02-26T00:56:59;96618.78;;;1.71;100.00
23643;BME280;11998;55.788;37.572;2023-02-26T00:57:59;96605.69;;;1.72;100.00
23643;BME280;11998;55.788;37.572;2023-02-26T00:59:02;96602.16;;;1.75;100.00
23643;BME280;11998;55.788;37.572;2023-02-26T01:00:04;96591.78;;;1.72;100.00
23643;BME280;11998;55.788;37.572;2023-02-26T01:01:07;96596.94;;;1.75;100.00
23643;BME280;11998;55.788;37.572;2023-02-26T01:02:08;96599.75;;;1.69;100.00
23643;BME280;11998;55.788;37.572;2023-02-26T01:03:09;96612.03;;;1.65;100.00
23643;BME280;11998;55.788;37.572;2023-02-26T01:04:12;96603.03;;;1.47;100.00
23643;BME280;11998;55.788;37.572;2023-02-26T01:05:14;96612.03;;;1.65;100.00
23643;BME280;11998;55.788;37.572;2023-02-26T01:06:18;96623.44;;;1.63;100.00
23643;BME280;11998;55.788;37.572;2023-02-26T01:07:21;96651.16;;;1.65;100.00
23643;BME280;11998;55.788;37.572;2023-02-26T01:08:42;96649.91;;;1.51;100.00
23643;BME280;11998;55.788;37.572;2023-02-26T01:09:46;96644.59;;;1.54;100.00
23643;BME280;11998;55.788;37.572;2023-02-26T01:10:47;96658.41;;;1.56;100.00
23643;BME280;11998;55.788;37.572;2023-02-26T01:11:48;96657.63;;;1.54;100.00
23643;BME280;11998;55.788;37.572;2023-02-26T01:12:49;96662.25;;;1.44;100.00
23643;BME280;11998;55.788;37.572;2023-02-26T01:13:50;96667.72;;;1.36;100.00
23643;BME280;11998;55.788;37.572;2023-02-26T01:14:50;96649.81;;;1.26;100.00
23643;BME280;11998;55.788;37.572;2023-02-26T01:16:07;96647.53;;;1.43;100.00
23643;BME280;11998;55.788;37.572;2023-02-26T01:17:59;96655.78;;;1.29;100.00
23643;BME280;11998;55.788;37.572;2023-02-26T01:20:21;96635.78;;;1.02;100.00
23643;BME280;11998;55.788;37.572;2023-02-26T01:21:31;96632.72;;;0.87;100.00
23643;BME280;11998;55.788;37.572;2023-02-26T01:22:53;96634.56;;;1.13;100.00
23643;BME280;11998;55.788;37.572;2023-02-26T01:23:54;96630.19;;;1.14;100.00
23643;BME280;11998;55.788;37.572;2023-02-26T01:25:07;96621.38;;;1.18;100.00
23643;BME280;11998;55.788;37.572;2023-02-26T01:27:17;96621.47;;;1.15;100.00
23643;BME280;11998;55.788;37.572;2023-02-26T01:28:18;96622.38;;;1.14;100.00
23643;BME280;11998;55.788;37.572;2023-02-26T01:29:19;96611.78;;;1.18;100.00
23643;BME280;11998;55.788;37.572;2023-02-26T01:30:20;96610.84;;;1.21;100.00
23643;BME280;11998;55.788;37.572;2023-02-26T01:31:46;96610.25;;;1.13;100.00
23643;BME280;11998;55.788;37.572;2023-02-26T01:34:14;96614.34;;;1.20;100.00
23643;BME280;11998;55.788;37.572;2023-02-26T01:36:44;96614.97;;;1.28;100.00
23643;BME280;11998;55.788;37.572;2023-02-26T01:39:05;96609.94;;;1.22;100.00
23643;BME280;11998;55.788;37.572;2023-02-26T01:40:45;96619.03;;;1.09;100.00
23643;BME280;11998;55.788;37.572;2023-02-26T01:42:01;96604.09;;;1.15;100.00
23643;BME280;11998;55.788;37.572;2023-02-26T01:43:11;96603.94;;;1.20;100.00
23643;BME280;11998;55.788;37.572;2023-02-26T01:44:24;96600.72;;;1.12;100.00
23643;BME280;11998;55.788;37.572;2023-02-26T01:45:32;96592.94;;;1.10;100.00
23643;BME280;11998;55.788;37.572;2023-02-26T01:46:44;96593.59;;;1.17;100.00
23643;BME280;11998;55.788;37.572;2023-02-26T01:48:02;96599.50;;;1.22;100.00
23643;BME280;11998;55.788;37.572;2023-02-26T01:49:07;96597.06;;;1.17;100.00
23643;BME280;11998;55.788;37.572;2023-02-26T01:50:16;96577.88;;;1.20;100.00
23643;BME280;11998;55.788;37.572;2023-02-26T01:51:19;96584.69;;;1.24;100.00
23643;BME280;11998;55.788;37.572;2023-02-26T01:53:48;96580.53;;;0.91;100.00
23643;BME280;11998;55.788;37.572;2023-02-26T01:54:49;96588.56;;;1.11;100.00
23643;BME280;11998;55.788;37.572;2023-02-26T01:55:54;96582.72;;;1.04;100.00
23643;BME280;11998;55.788;37.572;2023-02-26T01:57:06;96585.25;;;1.06;100.00
23643;BME280;11998;55.788;37.572;2023-02-26T01:58:07;96587.94;;;1.04;100.00
23643;BME280;11998;55.788;37.572;2023-02-26T01:59:10;96576.06;;;0.94;100.00
23643;BME280;11998;55.788;37.572;2023-02-26T02:00:15;96591.53;;;1.00;100.00
23643;BME280;11998;55.788;37.572;2023-02-26T02:01:15;96580.31;;;0.97;100.00
23643;BME280;11998;55.788;37.572;2023-02-26T02:02:23;96583.84;;;0.96;100.00
23643;BME280;11998;55.788;37.572;2023-02-26T02:03:27;96577.94;;;0.91;100.00
23643;BME280;11998;55.788;37.572;2023-02-26T02:04:30;96568.25;;;0.94;100.00
23643;BME280;11998;55.788;37.572;2023-02-26T02:05:47;96576.81;;;0.98;100.00
23643;BME280;11998;55.788;37.572;2023-02-26T02:06:49;96570.72;;;0.99;100.00
23643;BME280;11998;55.788;37.572;2023-02-26T02:07:50;96568.22;;;0.96;100.00
23643;BME280;11998;55.788;37.572;2023-02-26T02:08:51;96567.50;;;0.91;100.00
23643;BME280;11998;55.788;37.572;2023-02-26T02:09:52;96553.44;;;0.96;100.00
23643;BME280;11998;55.788;37.572;2023-02-26T02:10:53;96563.72;;;1.01;100.00
23643;BME280;11998;55.788;37.572;2023-02-26T02:13:45;96563.75;;;0.99;100.00
23643;BME280;11998;55.788;37.572;2023-02-26T02:18:07;96548.09;;;1.01;100.00
23643;BME280;11998;55.788;37.572;2023-02-26T02:20:40;96554.91;;;1.05;100.00
23643;BME280;11998;55.788;37.572;2023-02-26T02:21:53;96562.44;;;1.14;100.00
23643;BME280;11998;55.788;37.572;2023-02-26T02:23:19;96538.06;;;1.15;100.00
23643;BME280;11998;55.788;37.572;2023-02-26T02:27:23;96546.47;;;1.23;100.00
23643;BME280;11998;55.788;37.572;2023-02-26T02:32:28;96549.34;;;1.15;100.00
23643;BME280;11998;55.788;37.572;2023-02-26T02:33:35;96544.25;;;1.11;100.00
23643;BME280;11998;55.788;37.572;2023-02-26T02:34:51;96545.78;;;1.18;100.00
23643;BME280;11998;55.788;37.572;2023-02-26T02:36:04;96555.59;;;1.10;100.00
23643;BME280;11998;55.788;37.572;2023-02-26T02:38:25;96554.69;;;1.11;100.00
23643;BME280;11998;55.788;37.572;2023-02-26T02:39:28;96548.63;;;1.10;100.00
23643;BME280;11998;55.788;37.572;2023-02-26T02:40:36;96538.72;;;0.67;100.00
23643;BME280;11998;55.788;37.572;2023-02-26T02:41:45;96551.50;;;1.03;100.00
23643;BME280;11998;55.788;37.572;2023-02-26T02:43:08;96557.09;;;0.61;100.00
23643;BME280;11998;55.788;37.572;2023-02-26T02:44:13;96535.34;;;0.64;100.00
23643;BME280;11998;55.788;37.572;2023-02-26T02:46:20;96528.75;;;0.52;100.00
23643;BME280;11998;55.788;37.572;2023-02-26T02:47:24;96541.97;;;1.02;100.00
23643;BME280;11998;55.788;37.572;2023-02-26T02:48:37;96526.22;;;0.78;100.00
23643;BME280;11998;55.788;37.572;2023-02-26T02:49:47;96528.63;;;1.12;100.00
23643;BME280;11998;55.788;37.572;2023-02-26T02:50:57;96543.00;;;1.24;100.00
23643;BME280;11998;55.788;37.572;2023-02-26T02:52:00;57723.13;;;52.79;39.46
23643;BME280;11998;55.788;37.572;2023-02-26T02:54:14;96360.41;;;8.06;nan
23643;BME280;11998;55.788;37.572;2023-02-26T02:55:28;96381.94;;;3.90;nan
23643;BME280;11998;55.788;37.572;2023-02-26T02:56:54;96401.09;;;2.48;nan
23643;BME280;11998;55.788;37.572;2023-02-26T02:58:02;96401.38;;;1.95;nan
23643;BME280;11998;55.788;37.572;2023-02-26T02:59:24;96392.94;;;1.65;nan
23643;BME280;11998;55.788;37.572;2023-02-26T03:00:30;96403.84;;;1.28;nan
23643;BME280;11998;55.788;37.572;2023-02-26T03:01:34;96395.84;;;1.08;nan
23643;BME280;11998;55.788;37.572;2023-02-26T03:04:18;96386.69;;;1.21;nan
23643;BME280;11998;55.788;37.572;2023-02-26T03:05:19;96397.41;;;1.13;nan
23643;BME280;11998;55.788;37.572;2023-02-26T03:06:20;96390.44;;;1.14;nan
23643;BME280;11998;55.788;37.572;2023-02-26T03:07:20;96398.25;;;1.14;nan
23643;BME280;11998;55.788;37.572;2023-02-26T03:08:26;96393.13;;;1.11;nan
23643;BME280;11998;55.788;37.572;2023-02-26T03:09:27;96409.38;;;1.19;nan
23643;BME280;11998;55.788;37.572;2023-02-26T03:10:28;96406.06;;;1.14;nan
23643;BME280;11998;55.788;37.572;2023-02-26T03:11:29;96396.34;;;1.19;nan
23643;BME280;11998;55.788;37.572;2023-02-26T03:12:31;96402.34;;;1.21;nan
23643;BME280;11998;55.788;37.572;2023-02-26T03:13:32;96393.66;;;1.21;nan
23643;BME280;11998;55.788;37.572;2023-02-26T03:14:32;96412.88;;;1.18;nan
23643;BME280;11998;55.788;37.572;2023-02-26T03:15:39;96393.09;;;1.12;nan
23643;BME280;11998;55.788;37.572;2023-02-26T03:19:20;96393.53;;;1.25;nan
23643;BME280;11998;55.788;37.572;2023-02-26T03:20:33;96401.38;;;1.24;nan
23643;BME280;11998;55.788;37.572;2023-02-26T03:24:22;96398.50;;;1.31;nan
23643;BME280;11998;55.788;37.572;2023-02-26T03:25:37;96399.47;;;1.29;nan
23643;BME280;11998;55.788;37.572;2023-02-26T03:26:55;96401.91;;;1.33;nan
23643;BME280;11998;55.788;37.572;2023-02-26T03:29:09;96398.06;;;1.43;nan
23643;BME280;11998;55.788;37.572;2023-02-26T03:30:29;96405.00;;;1.44;nan
23643;BME280;11998;55.788;37.572;2023-02-26T03:31:44;96409.16;;;1.50;nan
23643;BME280;11998;55.788;37.572;2023-02-26T03:35:28;96408.31;;;1.48;nan
23643;BME280;11998;55.788;37.572;2023-02-26T03:36:38;96416.22;;;1.46;nan
23643;BME280;11998;55.788;37.572;2023-02-26T03:37:51;96416.31;;;1.43;nan
23643;BME280;11998;55.788;37.572;2023-02-26T03:39:15;96416.91;;;1.52;nan
23643;BME280;11998;55.788;37.572;2023-02-26T03:40:56;96416.97;;;1.50;nan
23643;BME280;11998;55.788;37.572;2023-02-26T03:42:00;96406.25;;;1.58;nan
23643;BME280;11998;55.788;37.572;2023-02-26T03:43:18;96418.63;;;1.53;nan
23643;BME280;11998;55.788;37.572;2023-02-26T03:44:26;96417.66;;;1.55;nan
23643;BME280;11998;55.788;37.572;2023-02-26T03:45:33;96446.34;;;1.55;nan
23643;BME280;11998;55.788;37.572;2023-02-26T03:46:40;96421.97;;;1.56;nan
23643;BME280;11998;55.788;37.572;2023-02-26T03:47:45;96421.78;;;1.61;nan
23643;BME280;11998;55.788;37.572;2023-02-26T03:48:49;96425.34;;;1.58;nan
23643;BME280;11998;55.788;37.572;2023-02-26T03:50:19;96428.81;;;1.59;nan
23643;BME280;11998;55.788;37.572;2023-02-26T03:51:21;96427.38;;;1.75;nan
23643;BME280;11998;55.788;37.572;2023-02-26T03:52:26;57723.13;;;-145.05;100.00
23643;BME280;11998;55.788;37.572;2023-02-26T03:53:31;57723.13;;;-145.05;100.00
23643;BME280;11998;55.788;37.572;2023-02-26T03:54:47;57723.13;;;-145.05;100.00
23643;BME280;11998;55.788;37.572;2023-02-26T03:55:55;57723.13;;;-145.05;100.00
23643;BME280;11998;55.788;37.572;2023-02-26T03:56:56;57723.13;;;-145.05;100.00
23643;BME280;11998;55.788;37.572;2023-02-26T03:57:57;57723.13;;;-145.05;100.00
23643;BME280;11998;55.788;37.572;2023-02-26T03:58:57;57723.13;;;-145.05;100.00
23643;BME280;11998;55.788;37.572;2023-02-26T03:59:58;57723.13;;;-145.05;100.00
23643;BME280;11998;55.788;37.572;2023-02-26T04:01:03;57723.13;;;-145.05;100.00
23643;BME280;11998;55.788;37.572;2023-02-26T04:02:18;57723.13;;;-145.05;100.00
23643;BME280;11998;55.788;37.572;2023-02-26T04:03:46;57723.13;;;-145.05;100.00
23643;BME280;11998;55.788;37.572;2023-02-26T04:05:09;57723.13;;;-145.05;100.00
23643;BME280;11998;55.788;37.572;2023-02-26T04:06:11;57723.13;;;-145.05;100.00
23643;BME280;11998;55.788;37.572;2023-02-26T04:07:15;57723.13;;;-145.05;100.00
23643;BME280;11998;55.788;37.572;2023-02-26T04:08:16;57723.13;;;-145.05;100.00
23643;BME280;11998;55.788;37.572;2023-02-26T04:09:17;57723.13;;;-145.05;100.00
23643;BME280;11998;55.788;37.572;2023-02-26T04:10:21;57723.13;;;-145.05;100.00
23643;BME280;11998;55.788;37.572;2023-02-26T04:11:25;57723.13;;;-145.05;100.00
23643;BME280;11998;55.788;37.572;2023-02-26T04:12:27;57723.13;;;-145.05;100.00
23643;BME280;11998;55.788;37.572;2023-02-26T04:13:28;57723.13;;;-145.05;100.00
23643;BME280;11998;55.788;37.572;2023-02-26T04:14:28;57723.13;;;-145.05;100.00
23643;BME280;11998;55.788;37.572;2023-02-26T04:15:29;57723.13;;;-145.05;100.00
23643;BME280;11998;55.788;37.572;2023-02-26T04:16:29;57723.13;;;-145.05;100.00
23643;BME280;11998;55.788;37.572;2023-02-26T04:17:30;57723.13;;;-145.05;100.00
23643;BME280;11998;55.788;37.572;2023-02-26T04:18:34;57723.13;;;-145.05;100.00
23643;BME280;11998;55.788;37.572;2023-02-26T04:19:34;57723.13;;;-145.05;100.00
23643;BME280;11998;55.788;37.572;2023-02-26T04:20:35;57723.13;;;-145.05;100.00
23643;BME280;11998;55.788;37.572;2023-02-26T04:21:35;57723.13;;;-145.05;100.00
23643;BME280;11998;55.788;37.572;2023-02-26T04:22:36;57723.13;;;-145.05;100.00
23643;BME280;11998;55.788;37.572;2023-02-26T04:23:46;57723.13;;;-145.05;100.00
23643;BME280;11998;55.788;37.572;2023-02-26T04:24:50;57723.13;;;-145.05;100.00
23643;BME280;11998;55.788;37.572;2023-02-26T04:25:51;57723.13;;;-145.05;100.00
23643;BME280;11998;55.788;37.572;2023-02-26T04:26:51;57723.13;;;-145.05;100.00
23643;BME280;11998;55.788;37.572;2023-02-26T04:27:52;57723.13;;;-145.05;100.00
23643;BME280;11998;55.788;37.572;2023-02-26T04:28:53;57723.13;;;-145.05;100.00
23643;BME280;11998;55.788;37.572;2023-02-26T04:29:53;57723.13;;;-145.05;100.00
23643;BME280;11998;55.788;37.572;2023-02-26T04:30:54;57723.13;;;-145.05;100.00
23643;BME280;11998;55.788;37.572;2023-02-26T04:31:54;57723.13;;;-145.05;100.00
23643;BME280;11998;55.788;37.572;2023-02-26T04:32:55;57723.13;;;-145.05;100.00
23643;BME280;11998;55.788;37.572;2023-02-26T04:33:55;57723.13;;;-145.05;100.00
23643;BME280;11998;55.788;37.572;2023-02-26T04:34:56;57723.13;;;-145.05;100.00
23643;BME280;11998;55.788;37.572;2023-02-26T04:35:57;57723.13;;;-145.05;100.00
23643;BME280;11998;55.788;37.572;2023-02-26T04:36:57;57723.13;;;-145.05;100.00
23643;BME280;11998;55.788;37.572;2023-02-26T04:37:58;57723.13;;;-145.05;100.00
23643;BME280;11998;55.788;37.572;2023-02-26T04:38:58;57723.13;;;-145.05;100.00
23643;BME280;11998;55.788;37.572;2023-02-26T04:39:59;57723.13;;;-145.05;100.00
23643;BME280;11998;55.788;37.572;2023-02-26T04:41:00;57723.13;;;-145.05;100.00
23643;BME280;11998;55.788;37.572;2023-02-26T04:42:00;57723.13;;;-145.05;100.00
23643;BME280;11998;55.788;37.572;2023-02-26T04:43:02;57723.13;;;-145.05;100.00
23643;BME280;11998;55.788;37.572;2023-02-26T04:44:03;57723.13;;;-145.05;100.00
23643;BME280;11998;55.788;37.572;2023-02-26T04:45:04;57723.13;;;-145.05;100.00
23643;BME280;11998;55.788;37.572;2023-02-26T04:46:05;57723.13;;;-145.05;100.00
23643;BME280;11998;55.788;37.572;2023-02-26T04:47:06;57723.13;;;-145.05;100.00
23643;BME280;11998;55.788;37.572;2023-02-26T04:48:06;57723.13;;;-145.05;100.00
23643;BME280;11998;55.788;37.572;2023-02-26T04:49:07;57723.13;;;-145.05;100.00
23643;BME280;11998;55.788;37.572;2023-02-26T04:50:08;57723.13;;;-145.05;100.00
23643;BME280;11998;55.788;37.572;2023-02-26T04:51:09;57723.13;;;-145.05;100.00
23643;BME280;11998;55.788;37.572;2023-02-26T04:52:09;57723.13;;;-145.05;100.00
23643;BME280;11998;55.788;37.572;2023-02-26T04:53:13;57723.13;;;-145.05;100.00
23643;BME280;11998;55.788;37.572;2023-02-26T04:54:15;57723.13;;;-145.05;100.00
23643;BME280;11998;55.788;37.572;2023-02-26T04:55:16;57723.13;;;-145.05;100.00
23643;BME280;11998;55.788;37.572;2023-02-26T04:56:17;57723.13;;;-145.05;100.00
23643;BME280;11998;55.788;37.572;2023-02-26T04:57:18;57723.13;;;-145.05;100.00
23643;BME280;11998;55.788;37.572;2023-02-26T04:58:18;57723.13;;;-145.05;100.00
23643;BME280;11998;55.788;37.572;2023-02-26T04:59:19;57723.13;;;-145.05;100.00
23643;BME280;11998;55.788;37.572;2023-02-26T05:00:20;57723.13;;;-145.05;100.00
23643;BME280;11998;55.788;37.572;2023-02-26T05:01:21;57723.13;;;-145.05;100.00
23643;BME280;11998;55.788;37.572;2023-02-26T05:02:21;57723.13;;;-145.05;100.00
23643;BME280;11998;55.788;37.572;2023-02-26T05:03:22;57723.13;;;-145.05;100.00
23643;BME280;11998;55.788;37.572;2023-02-26T05:04:22;57723.13;;;-145.05;100.00
23643;BME280;11998;55.788;37.572;2023-02-26T05:05:23;57723.13;;;-145.05;100.00
23643;BME280;11998;55.788;37.572;2023-02-26T05:06:24;57723.13;;;-145.05;100.00
23643;BME280;11998;55.788;37.572;2023-02-26T05:07:25;57723.13;;;-145.05;100.00
23643;BME280;11998;55.788;37.572;2023-02-26T05:08:25;57723.13;;;-145.05;100.00
23643;BME280;11998;55.788;37.572;2023-02-26T05:09:26;57723.13;;;-145.05;100.00
23643;BME280;11998;55.788;37.572;2023-02-26T05:10:27;57723.13;;;-145.05;100.00
23643;BME280;11998;55.788;37.572;2023-02-26T05:11:27;57723.13;;;-145.05;100.00
23643;BME280;11998;55.788;37.572;2023-02-26T05:12:28;57723.13;;;-145.05;100.00
23643;BME280;11998;55.788;37.572;2023-02-26T05:13:28;57723.13;;;-145.05;100.00
23643;BME280;11998;55.788;37.572;2023-02-26T05:14:29;57723.13;;;-145.05;100.00
23643;BME280;11998;55.788;37.572;2023-02-26T05:15:29;57723.13;;;-145.05;100.00
23643;BME280;11998;55.788;37.572;2023-02-26T05:16:30;57723.13;;;-145.05;100.00
23643;BME280;11998;55.788;37.572;2023-02-26T05:17:30;57723.13;;;-145.05;100.00
23643;BME280;11998;55.788;37.572;2023-02-26T05:18:31;57723.13;;;-145.05;100.00
23643;BME280;11998;55.788;37.572;2023-02-26T05:19:31;57723.13;;;-145.05;100.00
23643;BME280;11998;55.788;37.572;2023-02-26T05:20:32;57723.13;;;-145.05;100.00
23643;BME280;11998;55.788;37.572;2023-02-26T05:21:33;57723.13;;;-145.05;100.00
23643;BME280;11998;55.788;37.572;2023-02-26T05:22:33;57723.13;;;-145.05;100.00
23643;BME280;11998;55.788;37.572;2023-02-26T05:23:34;57723.13;;;-145.05;100.00
23643;BME280;11998;55.788;37.572;2023-02-26T05:24:34;57723.13;;;-145.05;100.00
23643;BME280;11998;55.788;37.572;2023-02-26T05:25:35;57723.13;;;-145.05;100.00
23643;BME280;11998;55.788;37.572;2023-02-26T05:26:35;57723.13;;;-145.05;100.00
23643;BME280;11998;55.788;37.572;2023-02-26T05:27:36;57723.13;;;-145.05;100.00
23643;BME280;11998;55.788;37.572;2023-02-26T05:28:37;57723.13;;;-145.05;100.00
23643;BME280;11998;55.788;37.572;2023-02-26T05:29:38;57723.13;;;-145.05;100.00
23643;BME280;11998;55.788;37.572;2023-02-26T05:30:40;57723.13;;;-145.05;100.00
23643;BME280;11998;55.788;37.572;2023-02-26T05:31:41;57723.13;;;-145.05;100.00
23643;BME280;11998;55.788;37.572;2023-02-26T05:32:43;57723.13;;;-145.05;100.00
23643;BME280;11998;55.788;37.572;2023-02-26T05:33:43;57723.13;;;-145.05;100.00
23643;BME280;11998;55.788;37.572;2023-02-26T05:34:44;57723.13;;;-145.05;100.00
23643;BME280;11998;55.788;37.572;2023-02-26T05:35:45;57723.13;;;-145.05;100.00
23643;BME280;11998;55.788;37.572;2023-02-26T05:36:47;57723.13;;;-145.05;100.00
23643;BME280;11998;55.788;37.572;2023-02-26T05:37:48;57723.13;;;-145.05;100.00
23643;BME280;11998;55.788;37.572;2023-02-26T05:38:48;57723.13;;;-145.05;100.00
23643;BME280;11998;55.788;37.572;2023-02-26T05:39:49;57723.13;;;-145.05;100.00
23643;BME280;11998;55.788;37.572;2023-02-26T05:40:50;57723.13;;;-145.05;100.00
23643;BME280;11998;55.788;37.572;2023-02-26T05:41:50;57723.13;;;-145.05;100.00
23643;BME280;11998;55.788;37.572;2023-02-26T05:42:52;57723.13;;;-145.05;100.00
23643;BME280;11998;55.788;37.572;2023-02-26T05:43:52;57723.13;;;-145.05;100.00
23643;BME280;11998;55.788;37.572;2023-02-26T05:44:53;57723.13;;;-145.05;100.00
23643;BME280;11998;55.788;37.572;2023-02-26T05:45:54;57723.13;;;-145.05;100.00
23643;BME280;11998;55.788;37.572;2023-02-26T05:46:54;57723.13;;;-145.05;100.00
23643;BME280;11998;55.788;37.572;2023-02-26T05:47:55;57723.13;;;-145.05;100.00
23643;BME280;11998;55.788;37.572;2023-02-26T05:48:56;57723.13;;;-145.05;100.00
23643;BME280;11998;55.788;37.572;2023-02-26T05:49:56;57723.13;;;-145.05;100.00
23643;BME280;11998;55.788;37.572;2023-02-26T05:50:57;57723.13;;;-145.05;100.00
23643;BME280;11998;55.788;37.572;2023-02-26T05:51:58;57723.13;;;-145.05;100.00
23643;BME280;11998;55.788;37.572;2023-02-26T05:52:58;57723.13;;;-145.05;100.00
23643;BME280;11998;55.788;37.572;2023-02-26T05:53:59;57723.13;;;-145.05;100.00
23643;BME280;11998;55.788;37.572;2023-02-26T05:55:00;57723.13;;;-145.05;100.00
23643;BME280;11998;55.788;37.572;2023-02-26T05:56:01;57723.13;;;-145.05;100.00
23643;BME280;11998;55.788;37.572;2023-02-26T05:57:02;57723.13;;;-145.05;100.00
23643;BME280;11998;55.788;37.572;2023-02-26T05:58:03;57723.13;;;-145.05;100.00
23643;BME280;11998;55.788;37.572;2023-02-26T05:59:05;57723.13;;;-145.05;100.00
23643;BME280;11998;55.788;37.572;2023-02-26T06:00:07;57723.13;;;-145.05;100.00
23643;BME280;11998;55.788;37.572;2023-02-26T06:01:08;57723.13;;;-145.05;100.00
23643;BME280;11998;55.788;37.572;2023-02-26T06:02:09;57723.13;;;-145.05;100.00
23643;BME280;11998;55.788;37.572;2023-02-26T06:03:09;57723.13;;;-145.05;100.00
23643;BME280;11998;55.788;37.572;2023-02-26T06:04:10;57723.13;;;-145.05;100.00
23643;BME280;11998;55.788;37.572;2023-02-26T06:05:11;57723.13;;;-145.05;100.00
23643;BME280;11998;55.788;37.572;2023-02-26T06:06:12;57723.13;;;-145.05;100.00
23643;BME280;11998;55.788;37.572;2023-02-26T06:07:15;57723.13;;;-145.05;100.00
23643;BME280;11998;55.788;37.572;2023-02-26T06:08:16;57723.13;;;-145.05;100.00
23643;BME280;11998;55.788;37.572;2023-02-26T06:09:16;57723.13;;;-145.05;100.00
23643;BME280;11998;55.788;37.572;2023-02-26T06:10:17;57723.13;;;-145.05;100.00
23643;BME280;11998;55.788;37.572;2023-02-26T06:11:18;57723.13;;;-145.05;100.00
23643;BME280;11998;55.788;37.572;2023-02-26T06:12:18;57723.13;;;-145.05;100.00
23643;BME280;11998;55.788;37.572;2023-02-26T06:13:19;57723.13;;;-145.05;100.00
23643;BME280;11998;55.788;37.572;2023-02-26T06:14:19;57723.13;;;-145.05;100.00
23643;BME280;11998;55.788;37.572;2023-02-26T06:15:20;57723.13;;;-145.05;100.00